sensor_id;sensor_type;location;lat;lon;timestamp;pressure;altitude;pressure_sealevel;temperature;humidity
27888;BME280;15237;49.608;7.170;2022-11-18T00:00:25;958.22;;;21.21;41.50
27888;BME280;15237;49.608;7.170;2022-11-18T00:01:49;958.22;;;21.21;41.53
27888;BME280;15237;49.608;7.170;2022-11-18T00:02:35;958.25;;;21.25;41.41
27888;BME280;15237;49.608;7.170;2022-11-18T00:03:20;958.26;;;21.28;41.38
27888;BME280;15237;49.608;7.170;2022-11-18T00:04:05;958.26;;;21.27;41.41
27888;BME280;15237;49.608;7.170;2022-11-18T00:04:50;958.26;;;21.18;41.60
27888;BME280;15237;49.608;7.170;2022-11-18T00:05:54;958.28;;;21.18;41.58
27888;BME280;15237;49.608;7.170;2022-11-18T00:06:41;958.29;;;21.21;41.50
27888;BME280;15237;49.608;7.170;2022-11-18T00:07:25;958.29;;;21.22;41.48
27888;BME280;15237;49.608;7.170;2022-11-18T00:08:08;958.29;;;21.21;41.51
27888;BME280;15237;49.608;7.170;2022-11-18T00:08:54;958.32;;;21.17;41.58
27888;BME280;15237;49.608;7.170;2022-11-18T00:09:38;958.32;;;21.16;41.60
27888;BME280;15237;49.608;7.170;2022-11-18T00:10:20;958.29;;;21.10;41.70
27888;BME280;15237;49.608;7.170;2022-11-18T00:11:10;958.33;;;21.08;41.71
27888;BME280;15237;49.608;7.170;2022-11-18T00:11:55;958.33;;;21.04;41.83
27888;BME280;15237;49.608;7.170;2022-11-18T00:12:39;958.37;;;21.04;41.83
27888;BME280;15237;49.608;7.170;2022-11-18T00:13:24;958.37;;;21.01;41.85
27888;BME280;15237;49.608;7.170;2022-11-18T00:14:14;958.38;;;21.02;41.86
27888;BME280;15237;49.608;7.170;2022-11-18T00:14:59;958.40;;;20.99;41.95
27888;BME280;15237;49.608;7.170;2022-11-18T00:15:43;958.38;;;20.98;41.93
27888;BME280;15237;49.608;7.170;2022-11-18T00:16:34;958.43;;;20.98;41.94
27888;BME280;15237;49.608;7.170;2022-11-18T00:17:18;958.41;;;20.96;41.98
27888;BME280;15237;49.608;7.170;2022-11-18T00:18:02;958.41;;;20.94;42.03
27888;BME280;15237;49.608;7.170;2022-11-18T00:18:50;958.41;;;20.94;42.00
27888;BME280;15237;49.608;7.170;2022-11-18T00:19:37;958.39;;;20.90;42.08
27888;BME280;15237;49.608;7.170;2022-11-18T00:20:23;958.38;;;20.89;42.09
27888;BME280;15237;49.608;7.170;2022-11-18T00:21:11;958.38;;;20.89;42.13
27888;BME280;15237;49.608;7.170;2022-11-18T00:21:56;958.37;;;20.94;42.00
27888;BME280;15237;49.608;7.170;2022-11-18T00:22:42;958.37;;;20.92;42.06
27888;BME280;15237;49.608;7.170;2022-11-18T00:23:28;958.36;;;20.91;42.05
27888;BME280;15237;49.608;7.170;2022-11-18T00:24:14;958.38;;;20.91;42.05
27888;BME280;15237;49.608;7.170;2022-11-18T00:24:57;958.38;;;20.88;42.12
27888;BME280;15237;49.608;7.170;2022-11-18T00:25:43;958.39;;;20.93;42.04
27888;BME280;15237;49.608;7.170;2022-11-18T00:26:32;958.38;;;20.92;42.03
27888;BME280;15237;49.608;7.170;2022-11-18T00:27:18;958.38;;;20.93;42.04
27888;BME280;15237;49.608;7.170;2022-11-18T00:28:04;958.41;;;20.92;42.03
27888;BME280;15237;49.608;7.170;2022-11-18T00:28:50;958.39;;;20.89;42.09
27888;BME280;15237;49.608;7.170;2022-11-18T00:29:32;958.39;;;20.89;42.08
27888;BME280;15237;49.608;7.170;2022-11-18T00:30:19;958.42;;;20.89;42.10
27888;BME280;15237;49.608;7.170;2022-11-18T00:31:04;958.43;;;20.87;42.13
27888;BME280;15237;49.608;7.170;2022-11-18T00:31:49;958.43;;;20.88;42.12
27888;BME280;15237;49.608;7.170;2022-11-18T00:32:36;958.45;;;20.92;42.04
27888;BME280;15237;49.608;7.170;2022-11-18T00:33:20;958.44;;;20.90;42.08
27888;BME280;15237;49.608;7.170;2022-11-18T00:34:05;958.45;;;20.88;42.11
27888;BME280;15237;49.608;7.170;2022-11-18T00:34:48;958.46;;;20.90;42.09
27888;BME280;15237;49.608;7.170;2022-11-18T00:35:33;958.46;;;20.91;42.04
27888;BME280;15237;49.608;7.170;2022-11-18T00:36:16;958.49;;;20.92;42.05
27888;BME280;15237;49.608;7.170;2022-11-18T00:37:02;958.47;;;20.91;42.07
27888;BME280;15237;49.608;7.170;2022-11-18T00:37:49;958.46;;;20.94;41.99
27888;BME280;15237;49.608;7.170;2022-11-18T00:38:33;958.49;;;20.92;42.05
27888;BME280;15237;49.608;7.170;2022-11-18T00:39:18;958.49;;;20.93;42.03
27888;BME280;15237;49.608;7.170;2022-11-18T00:40:00;958.51;;;20.93;41.99
27888;BME280;15237;49.608;7.170;2022-11-18T00:40:47;958.52;;;20.93;42.02
27888;BME280;15237;49.608;7.170;2022-11-18T00:41:31;958.53;;;20.90;42.06
27888;BME280;15237;49.608;7.170;2022-11-18T00:42:22;958.54;;;20.88;42.09
27888;BME280;15237;49.608;7.170;2022-11-18T00:43:09;958.57;;;20.88;42.09
27888;BME280;15237;49.608;7.170;2022-11-18T00:44:00;958.55;;;20.90;42.13
27888;BME280;15237;49.608;7.170;2022-11-18T00:44:51;958.52;;;20.88;42.09
27888;BME280;15237;49.608;7.170;2022-11-18T00:45:35;958.53;;;20.89;42.08
27888;BME280;15237;49.608;7.170;2022-11-18T00:46:16;958.53;;;20.86;42.17
27888;BME280;15237;49.608;7.170;2022-11-18T00:46:57;958.54;;;20.88;42.10
27888;BME280;15237;49.608;7.170;2022-11-18T00:47:40;958.55;;;20.88;42.13
27888;BME280;15237;49.608;7.170;2022-11-18T00:48:23;958.56;;;20.87;42.13
27888;BME280;15237;49.608;7.170;2022-11-18T00:49:08;958.57;;;20.90;42.05
27888;BME280;15237;49.608;7.170;2022-11-18T00:49:51;958.56;;;20.90;42.06
27888;BME280;15237;49.608;7.170;2022-11-18T00:50:39;958.58;;;20.92;42.03
27888;BME280;15237;49.608;7.170;2022-11-18T00:51:25;958.56;;;20.91;42.05
27888;BME280;15237;49.608;7.170;2022-11-18T00:52:08;958.55;;;20.91;42.04
27888;BME280;15237;49.608;7.170;2022-11-18T00:52:51;958.57;;;20.92;42.01
27888;BME280;15237;49.608;7.170;2022-11-18T00:53:37;958.57;;;20.91;42.05
27888;BME280;15237;49.608;7.170;2022-11-18T00:54:21;958.56;;;20.88;42.09
27888;BME280;15237;49.608;7.170;2022-11-18T00:55:05;958.56;;;20.87;42.10
27888;BME280;15237;49.608;7.170;2022-11-18T00:55:50;958.55;;;20.86;42.20
27888;BME280;15237;49.608;7.170;2022-11-18T00:56:31;958.57;;;20.84;42.16
27888;BME280;15237;49.608;7.170;2022-11-18T00:57:20;958.58;;;20.87;42.11
27888;BME280;15237;49.608;7.170;2022-11-18T00:58:04;958.59;;;20.89;42.10
27888;BME280;15237;49.608;7.170;2022-11-18T00:58:54;958.61;;;20.89;42.07
27888;BME280;15237;49.608;7.170;2022-11-18T00:59:39;958.61;;;20.87;42.11
27888;BME280;15237;49.608;7.170;2022-11-18T01:00:21;958.62;;;20.90;42.05
27888;BME280;15237;49.608;7.170;2022-11-18T01:01:06;958.62;;;20.90;42.04
27888;BME280;15237;49.608;7.170;2022-11-18T01:01:52;958.64;;;20.93;42.01
27888;BME280;15237;49.608;7.170;2022-11-18T01:02:38;958.65;;;20.93;42.00
27888;BME280;15237;49.608;7.170;2022-11-18T01:03:24;958.66;;;20.93;42.02
27888;BME280;15237;49.608;7.170;2022-11-18T01:04:06;958.66;;;20.91;42.03
27888;BME280;15237;49.608;7.170;2022-11-18T01:04:50;958.68;;;20.95;41.98
27888;BME280;15237;49.608;7.170;2022-11-18T01:05:34;958.68;;;20.95;41.94
27888;BME280;15237;49.608;7.170;2022-11-18T01:06:26;958.70;;;20.93;41.96
27888;BME280;15237;49.608;7.170;2022-11-18T01:07:11;958.73;;;20.93;41.98
27888;BME280;15237;49.608;7.170;2022-11-18T01:08:00;958.73;;;20.92;42.02
27888;BME280;15237;49.608;7.170;2022-11-18T01:08:46;958.75;;;20.92;42.01
27888;BME280;15237;49.608;7.170;2022-11-18T01:09:31;958.76;;;20.90;42.05
27888;BME280;15237;49.608;7.170;2022-11-18T01:10:16;958.74;;;20.89;42.07
27888;BME280;15237;49.608;7.170;2022-11-18T01:10:59;958.76;;;20.89;42.07
27888;BME280;15237;49.608;7.170;2022-11-18T01:11:46;958.77;;;20.88;42.07
27888;BME280;15237;49.608;7.170;2022-11-18T01:12:34;958.78;;;20.87;42.10
27888;BME280;15237;49.608;7.170;2022-11-18T01:13:20;958.76;;;20.85;42.15
27888;BME280;15237;49.608;7.170;2022-11-18T01:14:06;958.78;;;20.87;42.10
27888;BME280;15237;49.608;7.170;2022-11-18T01:14:57;958.80;;;20.86;42.10
27888;BME280;15237;49.608;7.170;2022-11-18T01:15:43;958.81;;;20.90;42.05
27888;BME280;15237;49.608;7.170;2022-11-18T01:16:27;958.81;;;20.87;42.09
27888;BME280;15237;49.608;7.170;2022-11-18T01:17:12;958.86;;;20.88;42.08
27888;BME280;15237;49.608;7.170;2022-11-18T01:17:54;958.85;;;20.87;42.09
27888;BME280;15237;49.608;7.170;2022-11-18T01:18:42;958.86;;;20.88;42.05
27888;BME280;15237;49.608;7.170;2022-11-18T01:19:29;958.87;;;20.87;42.11
27888;BME280;15237;49.608;7.170;2022-11-18T01:20:14;958.86;;;20.88;42.06
27888;BME280;15237;49.608;7.170;2022-11-18T01:21:00;958.86;;;20.87;42.10
27888;BME280;15237;49.608;7.170;2022-11-18T01:21:46;958.85;;;20.85;42.15
27888;BME280;15237;49.608;7.170;2022-11-18T01:22:37;958.86;;;20.89;42.05
27888;BME280;15237;49.608;7.170;2022-11-18T01:23:18;958.86;;;20.89;42.09
27888;BME280;15237;49.608;7.170;2022-11-18T01:24:01;958.87;;;20.94;41.93
27888;BME280;15237;49.608;7.170;2022-11-18T01:24:46;958.90;;;20.98;41.89
27888;BME280;15237;49.608;7.170;2022-11-18T01:25:30;958.90;;;20.98;41.87
27888;BME280;15237;49.608;7.170;2022-11-18T01:26:14;958.92;;;20.98;41.85
27888;BME280;15237;49.608;7.170;2022-11-18T01:26:55;958.92;;;20.98;41.87
27888;BME280;15237;49.608;7.170;2022-11-18T01:27:39;958.91;;;20.99;41.84
27888;BME280;15237;49.608;7.170;2022-11-18T01:28:17;958.94;;;21.02;41.76
27888;BME280;15237;49.608;7.170;2022-11-18T01:29:01;958.94;;;21.10;41.62
27888;BME280;15237;49.608;7.170;2022-11-18T01:29:40;958.97;;;21.18;41.47
27888;BME280;15237;49.608;7.170;2022-11-18T01:30:18;958.97;;;21.20;41.44
27888;BME280;15237;49.608;7.170;2022-11-18T01:31:38;958.96;;;21.27;41.28
27888;BME280;15237;49.608;7.170;2022-11-18T01:32:17;958.96;;;21.29;41.23
27888;BME280;15237;49.608;7.170;2022-11-18T01:32:56;958.94;;;21.29;41.20
27888;BME280;15237;49.608;7.170;2022-11-18T01:33:33;958.95;;;21.30;41.21
27888;BME280;15237;49.608;7.170;2022-11-18T01:34:13;958.97;;;21.30;41.19
27888;BME280;15237;49.608;7.170;2022-11-18T01:34:54;958.95;;;21.33;41.14
27888;BME280;15237;49.608;7.170;2022-11-18T01:35:42;958.95;;;21.36;41.08
27888;BME280;15237;49.608;7.170;2022-11-18T01:36:16;958.95;;;21.36;41.08
27888;BME280;15237;49.608;7.170;2022-11-18T01:36:56;958.95;;;21.40;40.99
27888;BME280;15237;49.608;7.170;2022-11-18T01:37:37;958.95;;;21.41;40.97
27888;BME280;15237;49.608;7.170;2022-11-18T01:38:14;958.96;;;21.43;40.93
27888;BME280;15237;49.608;7.170;2022-11-18T01:38:55;958.96;;;21.44;40.90
27888;BME280;15237;49.608;7.170;2022-11-18T01:39:34;958.95;;;21.44;40.90
27888;BME280;15237;49.608;7.170;2022-11-18T01:40:20;958.95;;;21.42;40.92
27888;BME280;15237;49.608;7.170;2022-11-18T01:40:58;958.97;;;21.42;40.92
27888;BME280;15237;49.608;7.170;2022-11-18T01:41:42;958.98;;;21.41;40.95
27888;BME280;15237;49.608;7.170;2022-11-18T01:42:22;958.98;;;21.41;40.97
27888;BME280;15237;49.608;7.170;2022-11-18T01:43:02;958.97;;;21.41;40.95
27888;BME280;15237;49.608;7.170;2022-11-18T01:45:51;958.99;;;21.38;41.00
27888;BME280;15237;49.608;7.170;2022-11-18T01:46:30;958.99;;;21.41;40.92
27888;BME280;15237;49.608;7.170;2022-11-18T01:47:12;959.00;;;21.42;40.91
27888;BME280;15237;49.608;7.170;2022-11-18T01:47:55;959.00;;;21.42;40.91
27888;BME280;15237;49.608;7.170;2022-11-18T01:48:33;959.01;;;21.43;40.87
27888;BME280;15237;49.608;7.170;2022-11-18T01:49:17;959.00;;;21.43;40.89
27888;BME280;15237;49.608;7.170;2022-11-18T01:49:55;959.01;;;21.46;40.81
27888;BME280;15237;49.608;7.170;2022-11-18T01:50:34;959.01;;;21.48;40.79
27888;BME280;15237;49.608;7.170;2022-11-18T01:51:14;959.00;;;21.48;40.79
27888;BME280;15237;49.608;7.170;2022-11-18T01:51:54;959.03;;;21.48;40.79
27888;BME280;15237;49.608;7.170;2022-11-18T01:52:33;959.03;;;21.49;40.74
27888;BME280;15237;49.608;7.170;2022-11-18T01:53:17;959.04;;;21.51;40.72
27888;BME280;15237;49.608;7.170;2022-11-18T01:54:11;959.04;;;21.49;40.75
27888;BME280;15237;49.608;7.170;2022-11-18T01:54:45;959.04;;;21.49;40.76
27888;BME280;15237;49.608;7.170;2022-11-18T01:55:26;959.04;;;21.48;40.78
27888;BME280;15237;49.608;7.170;2022-11-18T01:56:10;959.05;;;21.49;40.76
27888;BME280;15237;49.608;7.170;2022-11-18T01:56:53;959.04;;;21.49;40.74
27888;BME280;15237;49.608;7.170;2022-11-18T01:57:32;959.04;;;21.48;40.75
27888;BME280;15237;49.608;7.170;2022-11-18T01:58:15;959.05;;;21.51;40.69
27888;BME280;15237;49.608;7.170;2022-11-18T01:58:53;959.05;;;21.51;40.69
27888;BME280;15237;49.608;7.170;2022-11-18T01:59:36;959.06;;;21.51;40.68
27888;BME280;15237;49.608;7.170;2022-11-18T02:00:16;959.05;;;21.50;40.71
27888;BME280;15237;49.608;7.170;2022-11-18T02:00:54;959.05;;;21.51;40.69
27888;BME280;15237;49.608;7.170;2022-11-18T02:01:32;959.05;;;21.50;40.70
27888;BME280;15237;49.608;7.170;2022-11-18T02:02:11;959.05;;;21.48;40.76
27888;BME280;15237;49.608;7.170;2022-11-18T02:02:52;959.06;;;21.50;40.70
27888;BME280;15237;49.608;7.170;2022-11-18T02:03:31;959.06;;;21.51;40.67
27888;BME280;15237;49.608;7.170;2022-11-18T02:04:09;959.05;;;21.49;40.73
27888;BME280;15237;49.608;7.170;2022-11-18T02:04:49;959.07;;;21.52;40.65
27888;BME280;15237;49.608;7.170;2022-11-18T02:05:29;959.05;;;21.51;40.71
27888;BME280;15237;49.608;7.170;2022-11-18T02:06:08;959.07;;;21.52;40.66
27888;BME280;15237;49.608;7.170;2022-11-18T02:06:48;959.05;;;21.52;40.64
27888;BME280;15237;49.608;7.170;2022-11-18T02:07:28;959.08;;;21.51;40.66
27888;BME280;15237;49.608;7.170;2022-11-18T02:08:05;959.07;;;21.50;40.71
27888;BME280;15237;49.608;7.170;2022-11-18T02:08:44;959.06;;;21.49;40.72
27888;BME280;15237;49.608;7.170;2022-11-18T02:09:25;959.08;;;21.49;40.69
27888;BME280;15237;49.608;7.170;2022-11-18T02:10:04;959.07;;;21.49;40.68
27888;BME280;15237;49.608;7.170;2022-11-18T02:10:42;959.06;;;21.50;40.68
27888;BME280;15237;49.608;7.170;2022-11-18T02:11:21;959.08;;;21.51;40.65
27888;BME280;15237;49.608;7.170;2022-11-18T02:11:59;959.08;;;21.49;40.69
27888;BME280;15237;49.608;7.170;2022-11-18T02:12:36;959.07;;;21.48;40.72
27888;BME280;15237;49.608;7.170;2022-11-18T02:13:15;959.07;;;21.47;40.73
27888;BME280;15237;49.608;7.170;2022-11-18T02:13:58;959.09;;;21.49;40.69
27888;BME280;15237;49.608;7.170;2022-11-18T02:14:39;959.10;;;21.48;40.71
27888;BME280;15237;49.608;7.170;2022-11-18T02:15:45;959.09;;;21.48;40.72
27888;BME280;15237;49.608;7.170;2022-11-18T02:18:08;959.12;;;21.47;40.72
27888;BME280;15237;49.608;7.170;2022-11-18T02:18:46;959.14;;;21.48;40.71
27888;BME280;15237;49.608;7.170;2022-11-18T02:23:55;959.16;;;21.47;40.69
27888;BME280;15237;49.608;7.170;2022-11-18T02:24:39;959.15;;;21.45;40.73
27888;BME280;15237;49.608;7.170;2022-11-18T02:29:28;959.20;;;21.43;40.77
27888;BME280;15237;49.608;7.170;2022-11-18T02:30:10;959.21;;;21.42;40.82
27888;BME280;15237;49.608;7.170;2022-11-18T02:30:52;959.18;;;21.44;40.74
27888;BME280;15237;49.608;7.170;2022-11-18T02:32:17;959.24;;;21.47;40.69
27888;BME280;15237;49.608;7.170;2022-11-18T02:32:21;959.22;;;21.46;40.69
27888;BME280;15237;49.608;7.170;2022-11-18T02:35:05;959.25;;;21.52;40.60
27888;BME280;15237;49.608;7.170;2022-11-18T02:35:45;959.26;;;21.51;40.60
27888;BME280;15237;49.608;7.170;2022-11-18T02:36:27;959.26;;;21.52;40.59
27888;BME280;15237;49.608;7.170;2022-11-18T02:37:15;959.32;;;21.60;40.41
27888;BME280;15237;49.608;7.170;2022-11-18T02:38:06;959.31;;;21.64;40.32
27888;BME280;15237;49.608;7.170;2022-11-18T02:38:49;959.33;;;21.68;40.26
27888;BME280;15237;49.608;7.170;2022-11-18T02:39:23;959.34;;;21.69;40.24
27888;BME280;15237;49.608;7.170;2022-11-18T02:40:52;959.37;;;21.65;40.34
27888;BME280;15237;49.608;7.170;2022-11-18T02:41:32;959.37;;;21.60;40.43
27888;BME280;15237;49.608;7.170;2022-11-18T02:42:15;959.34;;;21.58;40.40
27888;BME280;15237;49.608;7.170;2022-11-18T02:42:59;959.38;;;21.61;40.37
27888;BME280;15237;49.608;7.170;2022-11-18T02:43:39;959.39;;;21.62;40.36
27888;BME280;15237;49.608;7.170;2022-11-18T02:44:26;959.40;;;21.64;40.32
27888;BME280;15237;49.608;7.170;2022-11-18T02:45:07;959.41;;;21.64;40.33
27888;BME280;15237;49.608;7.170;2022-11-18T02:45:50;959.42;;;21.66;40.28
27888;BME280;15237;49.608;7.170;2022-11-18T02:46:33;959.43;;;21.66;40.28
27888;BME280;15237;49.608;7.170;2022-11-18T02:47:12;959.44;;;21.64;40.35
27888;BME280;15237;49.608;7.170;2022-11-18T02:47:53;959.45;;;21.69;40.21
27888;BME280;15237;49.608;7.170;2022-11-18T02:48:34;959.46;;;21.72;40.15
27888;BME280;15237;49.608;7.170;2022-11-18T02:49:16;959.46;;;21.75;40.08
27888;BME280;15237;49.608;7.170;2022-11-18T02:49:58;959.49;;;21.80;40.03
27888;BME280;15237;49.608;7.170;2022-11-18T02:50:40;959.47;;;21.78;40.03
27888;BME280;15237;49.608;7.170;2022-11-18T02:52:02;959.49;;;21.82;39.97
27888;BME280;15237;49.608;7.170;2022-11-18T02:52:41;959.50;;;21.84;39.93
27888;BME280;15237;49.608;7.170;2022-11-18T02:53:22;959.51;;;21.88;39.83
27888;BME280;15237;49.608;7.170;2022-11-18T02:54:03;959.50;;;21.88;39.82
27888;BME280;15237;49.608;7.170;2022-11-18T02:54:43;959.49;;;21.86;39.84
27888;BME280;15237;49.608;7.170;2022-11-18T02:55:23;959.52;;;21.89;39.82
27888;BME280;15237;49.608;7.170;2022-11-18T02:56:05;959.51;;;21.88;39.82
27888;BME280;15237;49.608;7.170;2022-11-18T02:56:43;959.51;;;21.88;39.82
27888;BME280;15237;49.608;7.170;2022-11-18T02:57:26;959.50;;;21.85;39.85
27888;BME280;15237;49.608;7.170;2022-11-18T02:58:11;959.50;;;21.85;39.85
27888;BME280;15237;49.608;7.170;2022-11-18T02:58:52;959.54;;;21.89;39.77
27888;BME280;15237;49.608;7.170;2022-11-18T02:59:34;959.58;;;21.91;39.74
27888;BME280;15237;49.608;7.170;2022-11-18T03:00:16;959.62;;;21.91;39.74
27888;BME280;15237;49.608;7.170;2022-11-18T03:00:58;959.65;;;21.95;39.66
27888;BME280;15237;49.608;7.170;2022-11-18T03:01:36;959.62;;;21.95;39.66
27888;BME280;15237;49.608;7.170;2022-11-18T03:02:20;959.61;;;21.94;39.69
27888;BME280;15237;49.608;7.170;2022-11-18T03:02:57;959.61;;;21.92;39.73
27888;BME280;15237;49.608;7.170;2022-11-18T03:03:37;959.60;;;21.90;39.75
27888;BME280;15237;49.608;7.170;2022-11-18T03:04:15;959.64;;;21.89;39.75
27888;BME280;15237;49.608;7.170;2022-11-18T03:04:58;959.69;;;21.90;39.73
27888;BME280;15237;49.608;7.170;2022-11-18T03:05:42;959.69;;;21.90;39.75
27888;BME280;15237;49.608;7.170;2022-11-18T03:07:42;959.73;;;21.89;39.76
27888;BME280;15237;49.608;7.170;2022-11-18T03:08:21;959.72;;;21.88;39.76
27888;BME280;15237;49.608;7.170;2022-11-18T03:09:49;959.77;;;21.90;39.72
27888;BME280;15237;49.608;7.170;2022-11-18T03:10:31;959.80;;;21.90;39.72
27888;BME280;15237;49.608;7.170;2022-11-18T03:11:13;959.81;;;21.92;39.69
27888;BME280;15237;49.608;7.170;2022-11-18T03:11:55;959.85;;;21.92;39.65
27888;BME280;15237;49.608;7.170;2022-11-18T03:13:23;959.88;;;21.89;39.73
27888;BME280;15237;49.608;7.170;2022-11-18T03:16:11;959.97;;;21.90;39.67
27888;BME280;15237;49.608;7.170;2022-11-18T03:17:32;959.98;;;21.87;39.75
27888;BME280;15237;49.608;7.170;2022-11-18T03:19:11;959.98;;;21.80;39.90
27888;BME280;15237;49.608;7.170;2022-11-18T03:20:24;960.01;;;21.84;39.81
27888;BME280;15237;49.608;7.170;2022-11-18T03:21:43;960.02;;;21.84;39.81
27888;BME280;15237;49.608;7.170;2022-11-18T03:22:27;960.00;;;21.85;39.77
27888;BME280;15237;49.608;7.170;2022-11-18T03:23:52;960.04;;;21.85;39.79
27888;BME280;15237;49.608;7.170;2022-11-18T03:24:32;960.06;;;21.88;39.74
27888;BME280;15237;49.608;7.170;2022-11-18T03:25:58;960.07;;;21.87;39.76
27888;BME280;15237;49.608;7.170;2022-11-18T03:26:41;960.09;;;21.81;39.82
27888;BME280;15237;49.608;7.170;2022-11-18T03:27:27;960.09;;;21.79;39.89
27888;BME280;15237;49.608;7.170;2022-11-18T03:28:50;960.14;;;21.72;40.01
27888;BME280;15237;49.608;7.170;2022-11-18T03:29:33;960.13;;;21.67;40.12
27888;BME280;15237;49.608;7.170;2022-11-18T03:30:16;960.13;;;21.65;40.14
27888;BME280;15237;49.608;7.170;2022-11-18T03:30:57;960.16;;;21.64;40.16
27888;BME280;15237;49.608;7.170;2022-11-18T03:31:41;960.18;;;21.63;40.20
27888;BME280;15237;49.608;7.170;2022-11-18T03:32:26;960.20;;;21.65;40.13
27888;BME280;15237;49.608;7.170;2022-11-18T03:33:09;960.20;;;21.69;40.08
27888;BME280;15237;49.608;7.170;2022-11-18T03:33:55;960.21;;;21.70;40.04
27888;BME280;15237;49.608;7.170;2022-11-18T03:34:42;960.26;;;21.70;40.04
27888;BME280;15237;49.608;7.170;2022-11-18T03:35:23;960.23;;;21.71;40.04
27888;BME280;15237;49.608;7.170;2022-11-18T03:36:08;960.27;;;21.77;39.89
27888;BME280;15237;49.608;7.170;2022-11-18T03:36:50;960.27;;;21.80;39.84
27888;BME280;15237;49.608;7.170;2022-11-18T03:37:32;960.29;;;21.81;39.84
27888;BME280;15237;49.608;7.170;2022-11-18T03:38:15;960.29;;;21.82;39.82
27888;BME280;15237;49.608;7.170;2022-11-18T03:38:57;960.29;;;21.82;39.81
27888;BME280;15237;49.608;7.170;2022-11-18T03:39:37;960.29;;;21.81;39.84
27888;BME280;15237;49.608;7.170;2022-11-18T03:40:21;960.31;;;21.75;39.94
27888;BME280;15237;49.608;7.170;2022-11-18T03:41:00;960.30;;;21.68;40.07
27888;BME280;15237;49.608;7.170;2022-11-18T03:42:24;960.33;;;21.58;40.26
27888;BME280;15237;49.608;7.170;2022-11-18T03:43:07;960.33;;;21.54;40.33
27888;BME280;15237;49.608;7.170;2022-11-18T03:43:48;960.35;;;21.52;40.36
27888;BME280;15237;49.608;7.170;2022-11-18T03:44:28;960.36;;;21.51;40.41
27888;BME280;15237;49.608;7.170;2022-11-18T03:45:51;960.36;;;21.49;40.42
27888;BME280;15237;49.608;7.170;2022-11-18T03:46:34;960.36;;;21.46;40.47
27888;BME280;15237;49.608;7.170;2022-11-18T03:47:18;960.38;;;21.47;40.49
27888;BME280;15237;49.608;7.170;2022-11-18T03:47:59;960.38;;;21.51;40.37
27888;BME280;15237;49.608;7.170;2022-11-18T03:48:41;960.39;;;21.49;40.46
27888;BME280;15237;49.608;7.170;2022-11-18T03:49:23;960.41;;;21.49;40.45
27888;BME280;15237;49.608;7.170;2022-11-18T03:50:09;960.42;;;21.49;40.45
27888;BME280;15237;49.608;7.170;2022-11-18T03:52:13;960.33;;;21.47;40.50
27888;BME280;15237;49.608;7.170;2022-11-18T03:53:03;960.33;;;21.41;40.57
27888;BME280;15237;49.608;7.170;2022-11-18T03:53:43;960.32;;;21.38;40.66
27888;BME280;15237;49.608;7.170;2022-11-18T03:54:28;960.30;;;21.39;40.61
27888;BME280;15237;49.608;7.170;2022-11-18T03:55:09;960.28;;;21.41;40.57
27888;BME280;15237;49.608;7.170;2022-11-18T03:55:49;960.28;;;21.45;40.49
27888;BME280;15237;49.608;7.170;2022-11-18T03:56:29;960.26;;;21.47;40.48
27888;BME280;15237;49.608;7.170;2022-11-18T03:57:14;960.24;;;21.45;40.54
27888;BME280;15237;49.608;7.170;2022-11-18T03:58:35;960.18;;;21.49;40.44
27888;BME280;15237;49.608;7.170;2022-11-18T03:59:19;960.18;;;21.46;40.50
27888;BME280;15237;49.608;7.170;2022-11-18T04:00:44;960.22;;;21.48;40.43
27888;BME280;15237;49.608;7.170;2022-11-18T04:01:30;960.23;;;21.48;40.44
27888;BME280;15237;49.608;7.170;2022-11-18T04:02:14;960.25;;;21.49;40.46
27888;BME280;15237;49.608;7.170;2022-11-18T04:02:54;960.27;;;21.43;40.54
27888;BME280;15237;49.608;7.170;2022-11-18T04:03:32;960.35;;;21.45;40.49
27888;BME280;15237;49.608;7.170;2022-11-18T04:04:11;960.36;;;21.43;40.55
27888;BME280;15237;49.608;7.170;2022-11-18T04:04:50;960.35;;;21.43;40.53
27888;BME280;15237;49.608;7.170;2022-11-18T04:05:30;960.36;;;21.44;40.48
27888;BME280;15237;49.608;7.170;2022-11-18T04:06:54;960.39;;;21.43;40.54
27888;BME280;15237;49.608;7.170;2022-11-18T04:08:28;960.42;;;21.42;40.55
27888;BME280;15237;49.608;7.170;2022-11-18T04:09:10;960.44;;;21.41;40.56
27888;BME280;15237;49.608;7.170;2022-11-18T04:10:36;960.48;;;21.39;40.61
27888;BME280;15237;49.608;7.170;2022-11-18T04:11:18;960.51;;;21.40;40.57
27888;BME280;15237;49.608;7.170;2022-11-18T04:12:05;960.51;;;21.38;40.65
27888;BME280;15237;49.608;7.170;2022-11-18T04:13:00;960.55;;;21.42;40.55
27888;BME280;15237;49.608;7.170;2022-11-18T04:13:31;960.55;;;21.42;40.55
27888;BME280;15237;49.608;7.170;2022-11-18T04:14:11;960.55;;;21.41;40.57
27888;BME280;15237;49.608;7.170;2022-11-18T04:14:50;960.55;;;21.38;40.64
27888;BME280;15237;49.608;7.170;2022-11-18T04:15:35;960.57;;;21.37;40.64
27888;BME280;15237;49.608;7.170;2022-11-18T04:16:14;960.59;;;21.36;40.65
27888;BME280;15237;49.608;7.170;2022-11-18T04:16:57;960.60;;;21.35;40.68
27888;BME280;15237;49.608;7.170;2022-11-18T04:17:35;960.63;;;21.36;40.66
27888;BME280;15237;49.608;7.170;2022-11-18T04:18:15;960.65;;;21.34;40.70
27888;BME280;15237;49.608;7.170;2022-11-18T04:18:53;960.65;;;21.34;40.70
27888;BME280;15237;49.608;7.170;2022-11-18T04:19:30;960.67;;;21.38;40.64
27888;BME280;15237;49.608;7.170;2022-11-18T04:20:17;960.67;;;21.37;40.61
27888;BME280;15237;49.608;7.170;2022-11-18T04:20:54;960.68;;;21.38;40.63
27888;BME280;15237;49.608;7.170;2022-11-18T04:21:32;960.69;;;21.36;40.65
27888;BME280;15237;49.608;7.170;2022-11-18T04:22:12;960.70;;;21.35;40.68
27888;BME280;15237;49.608;7.170;2022-11-18T04:22:51;960.73;;;21.33;40.72
27888;BME280;15237;49.608;7.170;2022-11-18T04:23:32;960.70;;;21.34;40.70
27888;BME280;15237;49.608;7.170;2022-11-18T04:24:10;960.71;;;21.30;40.77
27888;BME280;15237;49.608;7.170;2022-11-18T04:24:47;960.72;;;21.31;40.75
27888;BME280;15237;49.608;7.170;2022-11-18T04:25:25;960.73;;;21.33;40.71
27888;BME280;15237;49.608;7.170;2022-11-18T04:26:05;960.76;;;21.35;40.68
27888;BME280;15237;49.608;7.170;2022-11-18T04:26:43;960.78;;;21.37;40.62